Windsor, VT (05089)

1:01 AM EDT on September 02, 2014 (GMT -0400)
Ascutney Farm Stand | Change Station
CLOSE
Current Station
Personal Weather Station
Location: Windsor, VT
Elevation: 427 ft
Nearby Weather Stations

Elev 427 ft 43.41 °N, 72.41 °W | Updated 13 minutes ago

Mostly Cloudy
Mostly Cloudy
66.4 °F
Feels Like 66.4 °F
N
0.0
Wind Variable Wind from West

Today
High -- | Low -- °F
--% Chance of Precip.
Yesterday
High -- | Low -- °F
Precip. -- in
6:14 AM 7:23 PM
Waxing Crescent, 47% visible
Pressure 29.94 in
Visibility 9.0 miles
Clouds Mostly Cloudy 7500 ft
Dew Point 62 °F
Humidity 87%
Rainfall 0.00 in
Snow Depth Not available.
UV 0 out of 12
Pollen 5.50 out of 12
PM2.5 Good
Flu Activity Not available.
METAR KVSF 020454Z AUTO 00000KT 9SM BKN075 18/18 A2994 RMK AO2 SLP137 T01830178 402940178

More Conditions Fewer Conditions

Pressure 29.94 in
Visibility 9.0 miles
Clouds Mostly Cloudy 7500 ft
Dew Point 62 °F
Humidity 87%
Rainfall 0.00 in
Snow Depth Not available.
UV 0 out of 12
Pollen 5.50 out of 12
PM2.5 Good
Flu Activity Not available.
METAR KVSF 020454Z AUTO 00000KT 9SM BKN075 18/18 A2994 RMK AO2 SLP137 T01830178 402940178

More Conditions Fewer Conditions

10-Day Weather Forecast

Almanac

Astronomy

Sep. 02, 2014 Rise Set
Actual Time 6:14 AM EDT 7:23 PM EDT
Civil Twilight 5:45 AM EDT 7:52 PM EDT
Nautical Twilight 5:10 AM EDT 8:27 PM EDT
Astronomical Twilight 4:32 AM EDT 9:04 PM EDT
Moon 2:08 PM EDT No Moon Set
Length of Visible Light 14h 07m
Length of Day
13h 08m
Tomorrow will be 2m 53s shorter.
Waxing Crescent, 47% of the Moon is Illuminated
Today
Waxing Crescent
Sep 2
First Quarter
Sep 8
Full
Sep 15
Last Quarter
Sep 24
New

Today's Extremes

State Highs State Lows

Community

WunderPhotos

Upload Photos

1,749,575 photos uploaded!

WunderBlogs® & News

Nearby

Air Quality

  Air Quality AQ Index Pollutant
Yesterday Good
PM2.5
Yesterday Good
OZONE
Current Good
PM2.5
Monday Moderate
PM2.5
Tuesday Moderate
PM2.5

Snow Depth

Station Depth Elevation
No new snow has been reported.

Earthquake Activity

City Distance Mag. Time & Date
No recent earthquake activity has been reported nearby.
Minimum magnitude displayed is 2.5.

Coastal Water Temperatures

Place Temperature
No Stations Reporting

Nearby Weather Stations